createdAt,value
2018-09-11T00:01:32.327Z,98661.20
2018-09-11T00:06:26.555Z,98657.10
2018-09-11T00:11:19.615Z,98664.82
2018-09-11T00:16:12.958Z,98652.19
2018-09-11T00:21:06.261Z,98644.02
2018-09-11T00:25:59.356Z,98642.70
2018-09-11T00:30:52.962Z,98643.09
2018-09-11T00:35:46.320Z,98646.92
2018-09-11T00:40:39.269Z,98642.88
2018-09-11T00:45:33.504Z,98634.28
2018-09-11T00:50:26.660Z,98637.83
2018-09-11T00:55:19.885Z,98632.23
2018-09-11T01:00:13.038Z,98636.81
2018-09-11T01:05:06.082Z,98635.53
2018-09-11T01:09:59.085Z,98636.39
2018-09-11T01:14:52.278Z,98630.34
2018-09-11T01:19:45.288Z,98634.09
2018-09-11T01:24:38.330Z,98642.85
2018-09-11T01:29:31.286Z,98638.36
2018-09-11T01:34:24.402Z,98640.64
2018-09-11T01:39:17.514Z,98640.95
2018-09-11T01:44:10.884Z,98645.80
2018-09-11T01:49:04.242Z,98641.98
2018-09-11T01:53:57.320Z,98631.25
2018-09-11T01:58:50.431Z,98630.08
2018-09-11T02:03:43.436Z,98616.08
2018-09-11T02:08:36.552Z,98614.30
2018-09-11T02:13:29.477Z,98628.90
2018-09-11T02:18:22.590Z,98624.38
2018-09-11T02:23:15.738Z,98617.77
2018-09-11T02:28:08.994Z,98619.02
2018-09-11T02:33:02.019Z,98616.61
2018-09-11T02:37:55.059Z,98616.99
2018-09-11T02:42:48.208Z,98627.34
2018-09-11T02:47:41.278Z,98619.80
2018-09-11T02:52:34.258Z,98644.52
2018-09-11T02:57:30.805Z,98640.43
2018-09-11T03:02:24.024Z,98630.63
2018-09-11T03:07:17.230Z,98648.16
2018-09-11T03:12:10.234Z,98639.19
2018-09-11T03:17:03.710Z,98633.01
2018-09-11T03:21:56.904Z,98644.86
2018-09-11T03:26:52.084Z,98634.77
2018-09-11T03:31:45.308Z,98638.86
2018-09-11T03:36:38.591Z,98633.38
2018-09-11T03:41:31.796Z,98627.66
2018-09-11T03:46:24.928Z,98633.95
2018-09-11T03:51:17.992Z,98643.36
2018-09-11T03:56:12.440Z,98646.64
2018-09-11T04:01:05.446Z,98653.77
2018-09-11T04:05:58.667Z,98657.94
2018-09-11T04:10:51.694Z,98661.71
2018-09-11T04:15:44.782Z,98674.55
2018-09-11T04:20:37.870Z,98680.57
2018-09-11T04:25:30.820Z,98685.72
2018-09-11T04:30:23.850Z,98688.59
2018-09-11T04:35:16.978Z,98693.78
2018-09-11T04:40:10.089Z,98697.12
2018-09-11T04:45:03.335Z,98695.93
2018-09-11T04:49:56.573Z,98701.54
2018-09-11T04:54:49.654Z,98703.84
2018-09-11T04:59:42.773Z,98701.38
2018-09-11T05:04:35.795Z,98700.75
2018-09-11T05:09:28.974Z,98703.84
2018-09-11T05:14:22.337Z,98708.30
2018-09-11T05:19:15.947Z,98707.23
2018-09-11T05:24:09.233Z,98706.28
2018-09-11T05:29:02.485Z,98710.96
2018-09-11T05:33:55.546Z,98716.80
2018-09-11T05:38:48.950Z,98720.30
2018-09-11T05:43:42.604Z,98719.83
2018-09-11T05:48:36.098Z,98733.45
2018-09-11T05:53:29.339Z,98729.27
2018-09-11T05:58:22.482Z,98726.63
2018-09-11T06:03:15.522Z,98727.34
2018-09-11T06:08:08.607Z,98737.09
2018-09-11T06:13:01.591Z,98739.09
2018-09-11T06:17:54.707Z,98729.50
2018-09-11T06:22:47.697Z,98718.40
2018-09-11T06:27:40.641Z,98706.47
2018-09-11T06:32:33.684Z,98734.23
2018-09-11T06:37:26.855Z,98725.39
2018-09-11T06:42:19.819Z,98730.13
2018-09-11T06:47:13.854Z,98726.94
2018-09-11T06:52:06.820Z,98729.20
2018-09-11T06:56:59.751Z,98722.30
2018-09-11T07:01:52.703Z,98726.09
2018-09-11T07:06:45.713Z,98737.81
2018-09-11T07:11:38.697Z,98739.72
2018-09-11T07:16:31.643Z,98752.27
2018-09-11T07:21:24.837Z,98766.48
2018-09-11T07:26:17.867Z,98753.98
2018-09-11T07:31:11.728Z,98746.66
2018-09-11T07:36:06.030Z,98745.45
2018-09-11T07:40:59.060Z,98754.84
2018-09-11T07:45:52.083Z,98760.00
2018-09-11T07:50:45.221Z,98741.65
2018-09-11T07:55:38.224Z,98749.80
2018-09-11T08:00:31.375Z,98753.19
2018-09-11T08:05:24.326Z,98754.35
2018-09-11T08:10:17.356Z,98738.96
2018-09-11T08:15:10.636Z,98747.59
2018-09-11T08:20:03.762Z,98726.03
2018-09-11T08:24:56.652Z,98731.30
2018-09-11T08:29:49.566Z,98736.26
2018-09-11T08:34:42.600Z,98745.30
2018-09-11T08:39:35.908Z,98722.59
2018-09-11T08:44:30.066Z,98703.17
2018-09-11T08:49:23.559Z,98708.23
2018-09-11T08:54:16.739Z,98705.92
2018-09-11T08:59:09.880Z,98720.34
2018-09-11T09:04:02.988Z,98714.61
2018-09-11T09:08:56.105Z,98703.04
2018-09-11T09:13:49.234Z,98698.84
2018-09-11T09:18:42.435Z,98716.77
2018-09-11T09:23:35.469Z,98723.14
2018-09-11T09:28:28.444Z,98745.70
2018-09-11T09:33:21.521Z,98732.38
2018-09-11T09:38:14.811Z,98728.78
2018-09-11T09:43:07.835Z,98739.03
2018-09-11T09:48:00.897Z,98704.94
2018-09-11T09:52:54.033Z,98690.44
2018-09-11T09:57:47.028Z,98745.40
2018-09-11T10:02:40.011Z,98717.55
2018-09-11T10:07:33.114Z,98712.66
2018-09-11T10:12:26.214Z,98725.02
2018-09-11T10:17:19.292Z,98713.80
2018-09-11T10:22:12.247Z,98706.04
2018-09-11T10:27:05.449Z,98716.64
2018-09-11T10:31:58.538Z,98710.36
2018-09-11T10:36:51.630Z,98731.35
2018-09-11T10:41:44.670Z,98712.54
2018-09-11T10:46:37.745Z,98707.49
2018-09-11T10:51:31.686Z,98723.59
2018-09-11T10:56:24.811Z,98733.48
2018-09-11T11:01:17.831Z,98705.95
2018-09-11T11:06:11.016Z,98711.46
2018-09-11T11:11:04.444Z,98706.95
2018-09-11T11:16:00.532Z,98694.41
2018-09-11T11:20:53.556Z,98698.85
2018-09-11T11:25:46.892Z,98699.02
2018-09-11T11:30:39.769Z,98690.25
2018-09-11T11:35:33.397Z,98672.33
2018-09-11T11:40:26.932Z,98665.73
2018-09-11T11:45:21.241Z,98672.96
2018-09-11T11:50:14.604Z,98669.08
2018-09-11T11:55:08.273Z,98665.66
2018-09-11T12:00:01.387Z,98674.37
2018-09-11T12:04:55.380Z,98647.25
2018-09-11T12:09:48.451Z,98648.19
2018-09-11T12:14:41.447Z,98636.62
2018-09-11T12:19:34.666Z,98636.02
2018-09-11T12:24:27.895Z,98663.37
2018-09-11T12:29:23.216Z,98650.09
2018-09-11T12:34:17.780Z,98653.84
2018-09-11T12:39:11.183Z,98634.38
2018-09-11T12:44:04.594Z,98624.19
2018-09-11T12:48:59.573Z,98623.95
2018-09-11T12:53:54.813Z,98624.77
2018-09-11T12:58:48.324Z,98618.95
2018-09-11T13:03:41.583Z,98613.92
2018-09-11T13:08:35.894Z,98632.70
2018-09-11T13:13:29.392Z,98619.88
2018-09-11T13:18:22.481Z,98607.20
2018-09-11T13:23:15.947Z,98593.38
2018-09-11T13:28:09.409Z,98597.42
2018-09-11T13:33:03.103Z,98601.06
2018-09-11T13:37:56.679Z,98601.70
2018-09-11T13:42:50.102Z,98595.09
2018-09-11T13:47:44.395Z,98602.70
2018-09-11T13:52:37.611Z,98601.39
2018-09-11T13:57:30.724Z,98605.13
2018-09-11T14:02:24.068Z,98605.27
2018-09-11T14:07:17.274Z,98604.45
2018-09-11T14:12:10.512Z,98605.47
2018-09-11T14:17:03.806Z,98618.18
2018-09-11T14:21:56.965Z,98613.24
2018-09-11T14:42:37.514Z,98614.19
2018-09-11T14:47:37.456Z,98630.09
2018-09-11T14:52:30.758Z,98636.78
2018-09-11T14:57:24.072Z,98635.73
2018-09-11T15:02:17.417Z,98637.19
2018-09-11T15:07:10.522Z,98626.92
2018-09-11T15:12:03.726Z,98619.86
2018-09-11T15:16:56.680Z,98629.59
2018-09-11T15:21:50.223Z,98634.06
2018-09-11T15:26:44.452Z,98643.39
2018-09-11T15:31:37.617Z,98627.13
2018-09-11T15:36:30.628Z,98630.21
2018-09-11T15:41:23.919Z,98641.12
2018-09-11T15:46:17.071Z,98648.11
2018-09-11T15:51:10.451Z,98643.41
2018-09-11T15:56:03.595Z,98634.77
2018-09-11T16:00:56.836Z,98633.08
2018-09-11T16:05:50.043Z,98628.25
2018-09-11T16:10:43.247Z,98635.89
2018-09-11T16:15:36.618Z,98625.80
2018-09-11T16:20:30.050Z,98619.94
2018-09-11T16:25:23.438Z,98625.02
2018-09-11T16:30:16.797Z,98623.61
2018-09-11T16:35:10.089Z,98625.27
2018-09-11T16:40:03.620Z,98611.23
2018-09-11T16:44:56.826Z,98629.59
2018-09-11T16:49:49.993Z,98628.72
2018-09-11T16:54:43.115Z,98637.75
2018-09-11T16:59:36.382Z,98635.58
2018-09-11T17:04:29.601Z,98644.41
2018-09-11T17:09:23.968Z,98646.33
2018-09-11T17:14:17.674Z,98661.72
2018-09-11T17:19:11.533Z,98669.83
2018-09-11T17:24:04.799Z,98671.86
2018-09-11T17:28:58.308Z,98685.09
2018-09-11T17:33:51.761Z,98694.47
2018-09-11T17:38:46.901Z,98702.63
2018-09-11T17:43:39.959Z,98707.20
2018-09-11T17:48:34.123Z,98710.92
2018-09-11T17:53:27.273Z,98706.59
2018-09-11T17:58:20.392Z,98704.59
2018-09-11T18:03:13.462Z,98706.64
2018-09-11T18:08:06.730Z,98713.17
2018-09-11T18:12:59.810Z,98717.37
2018-09-11T18:17:53.560Z,98714.56
2018-09-11T18:22:47.253Z,98720.13
2018-09-11T18:27:40.229Z,98725.46
2018-09-11T18:32:33.287Z,98742.28
2018-09-11T18:37:26.464Z,98745.33
2018-09-11T18:42:19.532Z,98739.93
2018-09-11T18:47:12.547Z,98735.63
2018-09-11T18:52:05.672Z,98741.35
2018-09-11T18:56:59.029Z,98755.20
2018-09-11T19:01:52.362Z,98760.45
2018-09-11T19:06:45.406Z,98758.80
2018-09-11T19:11:38.467Z,98759.17
2018-09-11T19:16:31.588Z,98769.17
2018-09-11T19:21:24.839Z,98783.45
2018-09-11T19:26:17.847Z,98787.28
2018-09-11T19:31:10.931Z,98791.63
2018-09-11T19:36:04.089Z,98788.83
2018-09-11T19:40:57.080Z,98789.95
2018-09-11T19:45:50.163Z,98785.86
2018-09-11T19:50:43.247Z,98781.82
2018-09-11T19:55:36.470Z,98780.97
2018-09-11T20:00:29.580Z,98781.60
2018-09-11T20:05:22.575Z,98781.13
2018-09-11T20:10:15.865Z,98785.44
2018-09-11T20:15:08.897Z,98791.48
2018-09-11T20:20:02.074Z,98797.97
2018-09-11T20:24:55.036Z,98796.77
2018-09-11T20:29:48.832Z,98804.41
2018-09-11T20:34:41.944Z,98810.77
2018-09-11T20:39:34.999Z,98811.73
2018-09-11T20:44:28.122Z,98805.47
2018-09-11T20:49:21.089Z,98802.84
2018-09-11T20:54:14.102Z,98806.25
2018-09-11T20:59:07.203Z,98810.36
2018-09-11T21:04:00.151Z,98816.44
2018-09-11T21:08:53.191Z,98814.42
2018-09-11T21:13:46.297Z,98812.94
2018-09-11T21:18:39.240Z,98822.36
2018-09-11T21:23:32.518Z,98824.06
2018-09-11T21:28:25.614Z,98831.09
2018-09-11T21:33:18.498Z,98825.64
2018-09-11T21:38:11.532Z,98824.48
2018-09-11T21:43:04.502Z,98833.89
2018-09-11T21:47:57.599Z,98842.62
2018-09-11T21:52:50.674Z,98839.31
2018-09-11T21:57:43.710Z,98838.61
2018-09-11T22:02:36.689Z,98844.80
2018-09-11T22:07:29.775Z,98846.06
2018-09-11T22:12:22.787Z,98852.42
2018-09-11T22:17:15.839Z,98840.68
2018-09-11T22:22:08.718Z,98844.88
2018-09-11T22:27:01.758Z,98846.00
2018-09-11T22:31:54.680Z,98857.30
2018-09-11T22:36:47.693Z,98864.44
2018-09-11T22:41:40.833Z,98857.84
2018-09-11T22:46:33.929Z,98873.34
2018-09-11T22:51:26.846Z,98859.38
2018-09-11T22:56:19.877Z,98859.06
2018-09-11T23:01:12.835Z,98862.67
2018-09-11T23:06:05.889Z,98875.00
2018-09-11T23:10:59.783Z,98873.47
2018-09-11T23:15:52.887Z,98878.25
2018-09-11T23:20:45.873Z,98881.69
2018-09-11T23:25:38.951Z,98876.44
2018-09-11T23:30:31.874Z,98883.23
2018-09-11T23:35:24.989Z,98879.14
2018-09-11T23:40:18.001Z,98884.53
2018-09-11T23:45:12.128Z,98877.31
2018-09-11T23:50:05.293Z,98879.62
2018-09-11T23:54:58.375Z,98879.59
2018-09-11T23:59:51.334Z,98865.34
